This is the latest recevied weather packets stored in our database for station/object DG3GAI-6. If no packets are shown the sender has not sent any weather packets the latest 10 day(s).
| Time | Temp. | Humidity | Pressure | Rain* | Wind** | Luminosity | Snow |
|---|---|---|---|---|---|---|---|
| 1778232686 | 10.56° C | 88% | 1020 hPa | - | - | - | - |
| 1778230879 | 11.11° C | 93% | 1020 hPa | - | - | - | - |
| 1778229072 | 10° C | 90% | 1020 hPa | - | - | - | - |
| 1778227264 | 10° C | 95% | 1020 hPa | - | - | - | - |
| 1778225457 | 9.44° C | 10% | - | - | - | - | - |
| 1778223650 | 8.89° C | 93% | 1020 hPa | - | - | - | - |
| 1778221843 | 8.33° C | 89% | 1020 hPa | - | - | - | - |
| 1778220035 | 7.78° C | 86% | 1019 hPa | - | - | - | - |
| 1778218228 | 7.22° C | 84% | 1019 hPa | - | - | - | - |
| 1778216421 | 7.22° C | 80% | 1019 hPa | - | - | - | - |
| 1778214613 | 6.67° C | 79% | 1019 hPa | - | - | - | - |
| 1778212806 | 7.22° C | 78% | 1019 hPa | - | - | - | - |
| 1778210999 | 7.22° C | 79% | 1019 hPa | - | - | - | - |
| 1778209192 | 7.22° C | 79% | 1019 hPa | - | - | - | - |
| 1778207384 | 7.78° C | 79% | 1019 hPa | - | - | - | - |
| 1778205577 | 7.78° C | 81% | 1019 hPa | - | - | - | - |
| 1778203770 | 8.33° C | 83% | 1019 hPa | - | - | - | - |
| 1778201962 | 8.89° C | 87% | 1019 hPa | - | - | - | - |
| 1778200155 | 8.89° C | 90% | 1019 hPa | - | - | - | - |
| 1778198348 | 9.44° C | 90% | 1019 hPa | - | - | - | - |
| 1778196541 | 9.44° C | 90% | 1020 hPa | - | - | - | - |
| 1778194733 | 8.89° C | 85% | 1020 hPa | - | - | - | - |
| 1778192926 | 8.89° C | 84% | 1020 hPa | - | - | - | - |
| 1778191119 | 8.89° C | 82% | 1020 hPa | - | - | - | - |
| 1778189312 | 8.89° C | 80% | 1020 hPa | - | - | - | - |
* Rain since midnight (hover to see other rain measurements)
** Current wind speed in m/s (hover to see current wind gust speed)